Skip Navigation LinksHome page > Weather > Current weather Skip Navigation Links

Current Weather

Porter County Muni, Valparaiso, Ind.

For information only: do not use for flight planning or navigation.
Latest weather
Observation time Tuesday, October 19, 2021 3:56 PM CDT
Local time Tuesday, October 19, 2021 4:58 PM CDT
Flight conditions Visual Meteorological Conditions
Winds
Wind direction South-Southwest (210°)
Wind speed 10 mph
Visibility 10 mi.
Sky condition
Ceiling unlimited
Sky clear
Temperature 70°F
Dewpoint 42°F
Altimeter 30.09 in.Hg
Pressure change last 3 hours0.04 in.Hg
Pressure falling
Derived measurements
Relative humidity 36%
Density altitude 1426 ft.
Sea-level pressure 30.08 in.Hg
Remarks
Fully automated report.
System requires maintenance.
Automated weather observing station with precipitation discriminator.
METAR KVPZ 192056Z AUTO 21009KT 10SM CLR 21/06 A3009 RMK AO2 SLP187 T02110056 57013 $

Settings

Location code

InnerDrive.Weather 4.0.6770.0 Release CLR 4.0.30319.42000
Copyright ©2018 Inner Drive Technology. All rights reserved. Portions Copyright ©1986-2018 David Braverman.

Find weather

Site navigation


Skip Navigation Links

Place info

Page info

PayPal - The safer, easier way to pay online!

Return home.

Copyright ©2021 Inner Drive Technology. Purveyors of fine, hand-crafted computer software. Page printed 2021-10-19T21:58:28 UTC.